Time;durP1;ratioP1;P1;durP2;ratioP2;P2;SDS_P1;SDS_P2;PMS_P1;PMS_P2;Temp;Humidity;BMP_temperature;BMP_pressure;BME280_temperature;BME280_humidity;BME280_pressure;Samples;Min_cycle;Max_cycle;Signal;HPM_P1;HPM_P2
2021/12/02 00:02:10;;;;;;;22.33;1.63;;;;;;;8.68;100.00;96029.09;5024658;28;20606;-63
2021/12/02 00:04:37;;;;;;;16.37;1.17;;;;;;;8.61;100.00;96031.34;5026386;28;21235;-63
2021/12/02 00:07:06;;;;;;;30.47;1.73;;;;;;;8.66;100.00;96033.91;5025357;28;20620;-63
2021/12/02 00:09:33;;;;;;;14.90;1.07;;;;;;;8.67;100.00;96027.50;5025116;28;20610;-63
2021/12/02 00:12:00;;;;;;;36.67;1.83;;;;;;;8.54;100.00;96022.97;5027012;28;20728;-63
2021/12/02 00:14:29;;;;;;;16.43;1.30;;;;;;;8.59;100.00;96017.56;5030169;28;20608;-63
2021/12/02 00:17:07;;;;;;;21.63;1.60;;;;;;;8.60;100.00;96031.66;5030297;28;20624;-64
2021/12/02 00:22:20;;;;;;;18.70;1.13;;;;;;;8.51;100.00;96028.88;5029565;28;20596;-63
2021/12/02 00:24:52;;;;;;;25.53;1.57;;;;;;;8.50;100.00;96026.53;5029941;28;20601;-63
2021/12/02 00:27:20;;;;;;;7.90;0.90;;;;;;;8.52;100.00;96025.16;5026976;28;20597;-63
2021/12/02 00:29:49;;;;;;;18.30;1.27;;;;;;;8.57;100.00;96035.69;5026370;28;20608;-63
2021/12/02 00:32:16;;;;;;;12.73;0.70;;;;;;;8.58;100.00;96036.47;5029099;28;20609;-63
2021/12/02 00:34:44;;;;;;;32.43;1.80;;;;;;;8.52;100.00;96045.63;5029829;28;20592;-63
2021/12/02 00:37:11;;;;;;;25.87;1.53;;;;;;;8.54;100.00;96044.25;5027882;28;20609;-64
2021/12/02 00:39:38;;;;;;;49.00;2.50;;;;;;;8.58;100.00;96055.88;5026384;28;20602;-63
2021/12/02 00:42:06;;;;;;;6.53;0.70;;;;;;;8.57;100.00;96054.31;5026341;28;20602;-63
2021/12/02 00:44:32;;;;;;;9.73;0.90;;;;;;;8.58;100.00;96061.22;5029643;28;20601;-63
2021/12/02 00:47:02;;;;;;;32.43;1.57;;;;;;;8.50;100.00;96061.91;5029179;28;20635;-63
2021/12/02 00:49:30;;;;;;;24.87;1.63;;;;;;;8.55;100.00;96067.13;5026233;28;20629;-63
2021/12/02 00:52:00;;;;;;;51.30;2.47;;;;;;;8.52;100.00;96051.75;5026058;28;20608;-63
2021/12/02 00:54:27;;;;;;;54.73;2.63;;;;;;;8.55;100.00;96077.75;5029295;28;20628;-63
2021/12/02 00:56:55;;;;;;;30.67;1.53;;;;;;;8.60;100.00;96077.66;5029398;28;20591;-63
2021/12/02 00:59:23;;;;;;;16.73;1.27;;;;;;;8.64;100.00;96085.84;5026012;28;20589;-63
2021/12/02 01:01:51;;;;;;;30.20;1.63;;;;;;;8.66;100.00;96081.81;5025977;28;20605;-63
2021/12/02 01:04:22;;;;;;;25.13;1.40;;;;;;;8.62;100.00;96083.50;5028693;28;20643;-63
2021/12/02 01:06:49;;;;;;;25.90;1.50;;;;;;;8.66;100.00;96092.44;5029109;28;20666;-63
2021/12/02 01:09:16;;;;;;;6.67;0.70;;;;;;;8.44;100.00;96100.31;5026650;28;20613;-63
2021/12/02 01:11:43;;;;;;;34.43;1.97;;;;;;;8.57;100.00;96104.84;5025911;28;21172;-63
2021/12/02 01:14:10;;;;;;;14.20;0.87;;;;;;;8.59;100.00;96094.72;5027528;28;20594;-63
2021/12/02 01:16:37;;;;;;;61.17;3.10;;;;;;;8.66;100.00;96102.31;5029079;28;20608;-63
2021/12/02 01:19:05;;;;;;;10.00;0.70;;;;;;;8.72;100.00;96098.47;5028008;28;20612;-63
2021/12/02 01:21:37;;;;;;;16.83;1.00;;;;;;;8.69;100.00;96104.41;5025685;28;20629;-63
2021/12/02 01:24:06;;;;;;;10.33;0.90;;;;;;;8.54;100.00;96102.78;5026309;28;20641;-63
2021/12/02 01:26:34;;;;;;;22.47;1.27;;;;;;;8.60;100.00;96090.19;5028740;28;20966;-64
2021/12/02 01:29:02;;;;;;;4.40;0.60;;;;;;;8.62;100.00;96093.34;5028209;28;20609;-63
2021/12/02 01:31:31;;;;;;;12.93;0.80;;;;;;;8.70;100.00;96105.19;5025442;28;20640;-63
2021/12/02 01:34:01;;;;;;;37.67;2.00;;;;;;;8.65;100.00;96101.53;5025008;28;20625;-63
2021/12/02 01:36:34;;;;;;;31.83;1.63;;;;;;;8.73;100.00;96105.38;5028707;28;20612;-63
2021/12/02 01:39:03;;;;;;;21.57;1.10;;;;;;;8.82;100.00;96110.81;5028024;28;20620;-64
2021/12/02 01:41:36;;;;;;;24.07;1.27;;;;;;;8.83;100.00;96115.81;5024955;28;20597;-64
2021/12/02 01:44:09;;;;;;;40.70;1.93;;;;;;;8.64;100.00;96133.75;5025336;28;20701;-63
2021/12/02 01:46:37;;;;;;;59.63;2.60;;;;;;;8.39;100.00;96118.22;5028127;28;20677;-63
2021/12/02 01:49:05;;;;;;;46.83;2.20;;;;;;;8.41;100.00;96122.19;5027148;28;20612;-63
2021/12/02 01:51:37;;;;;;;29.87;1.67;;;;;;;8.42;100.00;96126.41;5024654;28;21083;-63
2021/12/02 01:54:07;;;;;;;26.07;1.07;;;;;;;8.41;100.00;96116.06;5025786;28;20951;-63
2021/12/02 01:56:42;;;;;;;50.73;2.50;;;;;;;8.36;100.00;96122.25;5027981;28;20628;-63
2021/12/02 01:59:12;;;;;;;19.27;1.30;;;;;;;8.26;100.00;96100.34;5026538;28;21097;-63
2021/12/02 02:01:42;;;;;;;6.23;0.57;;;;;;;8.31;100.00;96113.56;5024862;28;20602;-63
2021/12/02 02:04:08;;;;;;;14.57;0.70;;;;;;;8.27;100.00;96104.56;5026189;28;20621;-63
2021/12/02 02:06:39;;;;;;;64.67;2.97;;;;;;;8.24;100.00;96113.13;5028084;28;20627;-63
2021/12/02 02:09:08;;;;;;;27.47;1.33;;;;;;;8.19;100.00;96111.34;5026815;28;20609;-63
2021/12/02 02:11:35;;;;;;;25.47;1.30;;;;;;;8.17;100.00;96102.84;5024550;28;20625;-63
2021/12/02 02:14:05;;;;;;;25.87;1.37;;;;;;;8.14;100.00;96114.88;5025095;28;20594;-63
2021/12/02 02:16:32;;;;;;;68.77;3.17;;;;;;;8.27;100.00;96118.66;5027888;28;20616;-63
2021/12/02 02:18:59;;;;;;;11.63;0.77;;;;;;;8.12;100.00;96116.25;5027653;28;20595;-63
2021/12/02 02:21:27;;;;;;;14.93;1.00;;;;;;;8.12;100.00;96118.91;5024642;28;20629;-63
2021/12/02 02:23:57;;;;;;;19.20;1.20;;;;;;;8.28;100.00;96108.84;5024293;28;20625;-63
2021/12/02 02:26:27;;;;;;;10.00;0.77;;;;;;;8.27;100.00;96120.53;5016151;28;20618;-63
2021/12/02 02:28:54;;;;;;;74.73;3.50;;;;;;;8.33;100.00;96127.38;5023208;28;20616;-63
2021/12/02 02:31:21;;;;;;;36.23;1.80;;;;;;;8.25;100.00;96115.50;5023416;28;21140;-63
2021/12/02 02:33:49;;;;;;;41.43;2.13;;;;;;;8.27;100.00;96123.97;5023986;28;20605;-63
2021/12/02 02:36:16;;;;;;;6.33;0.80;;;;;;;8.26;100.00;96119.75;5026743;28;20609;-64
2021/12/02 02:38:54;;;;;;;53.20;2.43;;;;;;;8.30;100.00;96117.31;5027512;28;20597;-63
2021/12/02 02:41:21;;;;;;;14.93;0.80;;;;;;;8.30;100.00;96126.09;5024281;28;20594;-63
2021/12/02 02:43:49;;;;;;;59.90;2.90;;;;;;;8.25;100.00;96128.00;5023952;28;20613;-63
2021/12/02 02:46:21;;;;;;;5.70;0.63;;;;;;;8.26;100.00;96122.41;5026600;28;20610;-63
2021/12/02 02:48:48;;;;;;;15.03;1.10;;;;;;;8.24;100.00;96116.56;5027309;28;20593;-63
2021/12/02 02:51:15;;;;;;;9.20;0.70;;;;;;;8.23;100.00;96127.53;5025108;28;20628;-63
2021/12/02 02:53:41;;;;;;;58.20;3.07;;;;;;;8.25;100.00;96120.03;5023815;28;20644;-63
2021/12/02 02:56:12;;;;;;;31.33;1.60;;;;;;;8.17;100.00;96123.38;5025226;28;20626;-63
2021/12/02 02:58:55;;;;;;;19.33;1.17;;;;;;;8.19;100.00;96124.66;5027174;28;20616;-63
2021/12/02 03:01:33;;;;;;;6.20;0.60;;;;;;;8.21;100.00;96130.47;5023808;28;20701;-63
2021/12/02 03:04:06;;;;;;;23.70;1.23;;;;;;;8.29;100.00;96127.19;5023768;28;20629;-63
2021/12/02 03:06:38;;;;;;;36.87;2.10;;;;;;;8.38;100.00;96136.06;5027006;28;20636;-63
2021/12/02 03:09:08;;;;;;;20.90;1.23;;;;;;;8.38;100.00;96128.09;5025863;28;20609;-63
2021/12/02 03:11:43;;;;;;;22.10;1.10;;;;;;;8.36;100.00;96130.22;5023637;28;20613;-63
2021/12/02 03:14:14;;;;;;;21.20;1.40;;;;;;;8.40;100.00;96136.56;5025140;28;20625;-63
2021/12/02 03:16:46;;;;;;;27.87;1.53;;;;;;;8.44;100.00;96134.09;5026858;28;20620;-63
2021/12/02 03:19:15;;;;;;;14.73;0.87;;;;;;;8.42;100.00;96134.38;5024670;28;20616;-63
2021/12/02 03:21:42;;;;;;;29.63;1.50;;;;;;;8.45;100.00;96131.13;5023423;28;20617;-63
2021/12/02 03:24:09;;;;;;;63.53;2.93;;;;;;;8.56;100.00;96129.91;5024907;28;20602;-63
2021/12/02 03:26:37;;;;;;;35.37;1.90;;;;;;;8.48;100.00;96129.78;5026871;28;20608;-63
2021/12/02 03:29:05;;;;;;;19.13;0.90;;;;;;;8.51;100.00;96118.56;5025777;28;20640;-63
2021/12/02 03:31:32;;;;;;;10.10;0.80;;;;;;;8.45;100.00;96125.81;5023338;28;20605;-63
2021/12/02 03:34:00;;;;;;;27.67;1.20;;;;;;;8.48;100.00;96125.22;5023387;28;20609;-63
2021/12/02 03:36:27;;;;;;;21.67;1.40;;;;;;;8.60;100.00;96133.53;5026663;28;20620;-63
2021/12/02 03:38:54;;;;;;;11.83;1.00;;;;;;;8.45;100.00;96136.47;5026477;28;20631;-63
2021/12/02 03:41:21;;;;;;;11.33;1.07;;;;;;;8.29;100.00;96121.88;5023461;28;20641;-63
2021/12/02 03:43:50;;;;;;;20.53;1.27;;;;;;;8.38;100.00;96130.75;5023107;28;20670;-63
2021/12/02 03:46:18;;;;;;;15.57;1.17;;;;;;;8.52;100.00;96126.25;5025780;28;20613;-63
2021/12/02 03:48:45;;;;;;;53.37;2.97;;;;;;;8.44;100.00;96126.91;5026472;28;20609;-63
2021/12/02 03:51:12;;;;;;;7.23;0.70;;;;;;;8.49;100.00;96123.38;5024567;28;20596;-63
2021/12/02 03:53:40;;;;;;;10.47;0.90;;;;;;;8.61;100.00;96119.16;5022955;28;20610;-63
2021/12/02 03:56:08;;;;;;;42.80;2.20;;;;;;;8.28;100.00;96114.16;5024115;28;20634;-63
2021/12/02 03:58:35;;;;;;;46.67;2.17;;;;;;;8.34;100.00;96113.00;5026421;28;20585;-63
2021/12/02 04:01:05;;;;;;;36.20;1.60;;;;;;;8.43;100.00;96109.38;5025650;28;20628;-63
2021/12/02 04:03:32;;;;;;;31.80;1.90;;;;;;;8.35;100.00;96122.56;5022898;28;20605;-63
2021/12/02 04:05:58;;;;;;;10.10;0.80;;;;;;;8.38;100.00;96114.00;5023083;28;20621;-63
2021/12/02 04:08:29;;;;;;;21.97;1.23;;;;;;;8.42;100.00;96121.09;5026348;28;20647;-63
2021/12/02 04:11:10;;;;;;;15.00;1.00;;;;;;;8.38;100.00;96127.28;5026385;28;20601;-63
2021/12/02 04:13:41;;;;;;;10.87;0.70;;;;;;;8.36;100.00;96122.25;5022891;28;20614;-63
2021/12/02 04:16:14;;;;;;;3.33;0.80;;;;;;;8.37;100.00;96129.16;5024267;28;20597;-63
2021/12/02 04:18:41;;;;;;;20.23;1.33;;;;;;;8.40;100.00;96133.91;5026231;28;20613;-63
2021/12/02 04:21:08;;;;;;;15.57;1.17;;;;;;;8.46;100.00;96137.25;5025011;28;20616;-63
2021/12/02 04:23:34;;;;;;;15.60;1.07;;;;;;;8.50;100.00;96138.25;5022863;28;20649;-63
2021/12/02 04:26:01;;;;;;;10.30;0.90;;;;;;;8.54;100.00;96145.34;5023243;28;20666;-63
2021/12/02 04:28:28;;;;;;;12.13;1.10;;;;;;;8.42;100.00;96142.38;5026074;28;20608;-63
2021/12/02 04:30:54;;;;;;;5.43;0.90;;;;;;;8.49;100.00;96139.31;5026221;28;20695;-63
2021/12/02 04:33:22;;;;;;;12.67;0.87;;;;;;;8.57;100.00;96144.00;5023002;28;20656;-63
2021/12/02 04:35:49;;;;;;;34.67;1.87;;;;;;;8.54;100.00;96152.56;5022718;28;20629;-63
2021/12/02 04:38:16;;;;;;;16.23;1.20;;;;;;;8.58;100.00;96156.19;5025088;28;20606;-63
2021/12/02 04:40:42;;;;;;;55.23;2.73;;;;;;;8.58;100.00;96156.19;5025921;28;20601;-63
2021/12/02 04:43:09;;;;;;;21.77;1.27;;;;;;;8.60;100.00;96151.38;5024522;28;20628;-63
2021/12/02 04:45:36;;;;;;;32.60;1.93;;;;;;;8.59;100.00;96158.59;5022716;28;20676;-63
2021/12/02 04:48:03;;;;;;;3.10;0.70;;;;;;;8.46;100.00;96159.31;5023224;28;20598;-63
2021/12/02 04:50:31;;;;;;;59.97;2.90;;;;;;;8.30;100.00;96158.00;5026057;28;20601;-63
2021/12/02 04:52:58;;;;;;;6.50;0.70;;;;;;;8.19;100.00;96145.13;5025905;28;20631;-63
2021/12/02 04:55:25;;;;;;;9.53;0.70;;;;;;;8.17;100.00;96155.28;5024294;28;20648;-63
2021/12/02 04:57:52;;;;;;;23.13;1.73;;;;;;;8.27;100.00;96157.75;5025864;28;20594;-64
2021/12/02 05:00:19;;;;;;;16.80;1.20;;;;;;;8.16;100.00;96165.13;5028862;28;20640;-63
2021/12/02 05:02:46;;;;;;;24.17;1.43;;;;;;;8.27;100.00;96165.72;5029290;28;20613;-63
2021/12/02 05:05:13;;;;;;;16.47;1.00;;;;;;;8.40;100.00;96175.66;5027244;28;20615;-63
2021/12/02 05:07:41;;;;;;;21.50;1.30;;;;;;;8.44;100.00;96166.03;5025953;28;20613;-63
2021/12/02 05:10:08;;;;;;;24.57;1.63;;;;;;;8.50;100.00;96165.66;5027319;28;20669;-64
2021/12/02 05:12:35;;;;;;;25.83;1.67;;;;;;;8.53;100.00;96156.28;5029170;28;21111;-64
2021/12/02 05:15:02;;;;;;;17.03;1.57;;;;;;;8.50;100.00;96172.84;5027707;28;20628;-63
2021/12/02 05:17:29;;;;;;;31.77;1.77;;;;;;;8.56;100.00;96169.81;5025839;28;20641;-63
2021/12/02 05:19:56;;;;;;;26.17;1.73;;;;;;;8.35;100.00;96163.25;5025804;28;20710;-63
2021/12/02 05:22:22;;;;;;;13.63;0.90;;;;;;;8.57;100.00;96171.38;5029061;28;20612;-63
2021/12/02 05:24:50;;;;;;;44.30;2.53;;;;;;;8.56;100.00;96163.69;5029002;28;20601;-63
2021/12/02 05:27:17;;;;;;;35.57;1.73;;;;;;;8.56;100.00;96163.69;5026495;28;20599;-63
2021/12/02 05:29:43;;;;;;;31.23;2.33;;;;;;;8.60;100.00;96167.34;5025495;28;21007;-63
2021/12/02 05:32:10;;;;;;;84.80;3.87;;;;;;;8.58;100.00;96164.97;5027103;28;20606;-63
2021/12/02 05:34:37;;;;;;;31.77;1.73;;;;;;;8.54;100.00;96166.63;5028909;28;20612;-63
2021/12/02 05:37:04;;;;;;;13.73;1.07;;;;;;;8.54;100.00;96169.28;5028036;28;20651;-63
2021/12/02 05:39:31;;;;;;;7.10;0.93;;;;;;;8.55;100.00;96154.91;5025427;28;20619;-63
2021/12/02 05:41:59;;;;;;;23.27;1.57;;;;;;;8.61;100.00;96155.63;5025318;28;20602;-63
2021/12/02 05:44:25;;;;;;;16.87;1.10;;;;;;;8.56;100.00;96167.16;5017261;28;20601;-63
2021/12/02 05:46:53;;;;;;;20.17;1.50;;;;;;;8.57;100.00;96171.38;5017019;28;20598;-63
2021/12/02 05:49:20;;;;;;;12.20;1.37;;;;;;;8.63;100.00;96172.09;5017157;28;20601;-64
2021/12/02 05:51:47;;;;;;;30.53;1.60;;;;;;;8.65;100.00;96164.59;5016978;28;20715;-63
2021/12/02 05:54:13;;;;;;;8.83;0.70;;;;;;;8.58;100.00;96162.31;5016991;28;20601;-63
2021/12/02 05:56:40;;;;;;;55.53;2.73;;;;;;;8.56;100.00;96163.69;5016992;28;20640;-63
2021/12/02 05:59:08;;;;;;;13.83;1.33;;;;;;;8.65;100.00;96156.63;5024877;28;20631;-63
2021/12/02 06:01:37;;;;;;;10.83;0.90;;;;;;;8.68;100.00;96167.47;5025108;28;20602;-63
2021/12/02 06:04:04;;;;;;;33.60;1.67;;;;;;;8.72;100.00;96169.53;5025429;28;20622;-63
2021/12/02 06:06:30;;;;;;;47.97;2.50;;;;;;;8.64;100.00;96171.78;5027260;28;20617;-63
2021/12/02 06:08:57;;;;;;;13.60;1.33;;;;;;;8.73;100.00;96165.81;5028210;28;20604;-63
2021/12/02 06:11:24;;;;;;;56.03;3.00;;;;;;;8.59;100.00;96171.88;5016741;28;20652;-63
2021/12/02 06:13:50;;;;;;;7.50;0.70;;;;;;;8.47;100.00;96170.75;5016597;28;20684;-63
2021/12/02 06:16:20;;;;;;;20.73;1.43;;;;;;;8.52;100.00;96168.00;5016509;28;20654;-63
2021/12/02 06:18:47;;;;;;;61.43;3.60;;;;;;;8.53;100.00;96169.59;5016280;28;20605;-63
2021/12/02 06:21:14;;;;;;;15.63;1.23;;;;;;;8.56;100.00;96174.34;5016185;28;20605;-64
2021/12/02 06:23:41;;;;;;;56.07;3.03;;;;;;;8.53;100.00;96172.25;5016535;28;20593;-63
2021/12/02 06:26:08;;;;;;;9.10;1.00;;;;;;;8.56;100.00;96179.66;5016459;28;20622;-63
2021/12/02 06:28:35;;;;;;;15.97;1.17;;;;;;;8.60;100.00;96173.44;5021367;28;20635;-64
2021/12/02 06:31:02;;;;;;;57.90;2.80;;;;;;;8.65;100.00;96177.91;5027281;28;20655;-63
2021/12/02 06:33:31;;;;;;;11.30;0.87;;;;;;;8.61;100.00;96161.72;5024571;28;20610;-63
2021/12/02 06:35:58;;;;;;;17.37;1.20;;;;;;;8.68;100.00;96172.78;5024376;28;20634;-63
2021/12/02 06:38:24;;;;;;;4.50;0.60;;;;;;;8.65;100.00;96170.72;5024455;28;20606;-63
2021/12/02 06:40:51;;;;;;;23.07;1.53;;;;;;;8.72;100.00;96169.53;5024214;28;20633;-63
2021/12/02 06:43:18;;;;;;;27.07;1.57;;;;;;;8.72;100.00;96173.00;5026887;28;20609;-64
2021/12/02 06:45:45;;;;;;;27.67;1.70;;;;;;;8.63;100.00;96169.44;5027371;28;20620;-63
2021/12/02 06:48:12;;;;;;;41.43;2.07;;;;;;;8.44;100.00;96174.00;5025497;28;20637;-63
2021/12/02 06:50:42;;;;;;;39.97;2.30;;;;;;;8.47;100.00;96178.75;5024099;28;20617;-64
2021/12/02 06:53:08;;;;;;;57.87;3.33;;;;;;;8.53;100.00;96173.06;5025434;28;20605;-63
2021/12/02 06:55:35;;;;;;;39.83;2.13;;;;;;;8.30;100.00;96181.94;5027491;28;20617;-63
2021/12/02 06:58:02;;;;;;;29.60;1.93;;;;;;;8.24;100.00;96172.41;5025215;28;20647;-63
2021/12/02 07:00:28;;;;;;;62.30;3.33;;;;;;;8.21;100.00;96172.19;5027247;28;21375;-63
2021/12/02 07:02:55;;;;;;;20.43;1.37;;;;;;;8.29;100.00;96183.03;5027206;28;20670;-63
2021/12/02 07:05:23;;;;;;;28.43;1.87;;;;;;;8.47;100.00;96187.53;5023787;28;20613;-63
2021/12/02 07:07:51;;;;;;;21.93;1.53;;;;;;;8.40;100.00;96178.31;5023631;28;20614;-63
2021/12/02 07:10:20;;;;;;;34.57;2.00;;;;;;;8.30;100.00;96175.81;5026323;28;20621;-63
2021/12/02 07:12:49;;;;;;;57.87;3.17;;;;;;;8.35;100.00;96179.22;5027028;28;20604;-63
2021/12/02 07:15:19;;;;;;;56.47;3.13;;;;;;;8.35;100.00;96184.53;5024519;28;20612;-63
2021/12/02 07:17:46;;;;;;;19.03;1.57;;;;;;;8.31;100.00;96196.81;5023164;28;20613;-63
2021/12/02 07:20:13;;;;;;;49.20;2.90;;;;;;;8.27;100.00;96198.44;5025493;28;20617;-63
2021/12/02 07:22:40;;;;;;;62.10;3.47;;;;;;;8.34;100.00;96214.06;5026826;28;20601;-63
2021/12/02 07:25:09;;;;;;;28.17;1.87;;;;;;;8.32;100.00;96209.03;5025642;28;20597;-63
2021/12/02 07:27:37;;;;;;;36.07;2.13;;;;;;;8.35;100.00;96205.00;5023379;28;20610;-63
2021/12/02 07:30:05;;;;;;;14.13;0.97;;;;;;;8.15;100.00;96211.38;5023984;28;20605;-63
2021/12/02 07:32:35;;;;;;;13.10;1.20;;;;;;;8.06;100.00;96218.44;5026818;28;20605;-64
2021/12/02 07:35:05;;;;;;;28.50;1.77;;;;;;;8.06;100.00;96223.75;5025965;28;20593;-63
2021/12/02 07:37:32;;;;;;;31.00;1.90;;;;;;;8.25;100.00;96219.22;5023189;28;20618;-63
2021/12/02 07:40:01;;;;;;;12.37;0.93;;;;;;;8.27;100.00;96230.34;5023041;28;20590;-63
2021/12/02 07:42:29;;;;;;;59.73;3.40;;;;;;;8.34;100.00;96225.47;5026435;28;20619;-63
2021/12/02 07:44:56;;;;;;;31.00;1.90;;;;;;;8.32;100.00;96232.97;5025445;28;20635;-63
2021/12/02 07:47:24;;;;;;;30.10;1.77;;;;;;;8.25;100.00;96229.84;5023266;28;20601;-63
2021/12/02 07:49:51;;;;;;;20.77;1.90;;;;;;;8.21;100.00;96226.19;5023065;28;20610;-63
2021/12/02 07:52:21;;;;;;;10.63;1.00;;;;;;;8.25;100.00;96229.84;5025555;28;20610;-63
2021/12/02 07:54:50;;;;;;;25.37;1.73;;;;;;;8.42;100.00;96234.66;5026332;28;20640;-63
2021/12/02 07:57:18;;;;;;;15.97;1.30;;;;;;;8.22;100.00;96226.97;5023915;28;20605;-63
2021/12/02 07:59:49;;;;;;;49.87;2.50;;;;;;;8.39;100.00;96233.38;5023900;28;20610;-63
2021/12/02 08:02:17;;;;;;;31.00;1.80;;;;;;;8.34;100.00;96245.97;5025429;28;20609;-64
2021/12/02 08:04:44;;;;;;;51.70;2.30;;;;;;;8.31;100.00;96234.03;5026148;28;20652;-63
2021/12/02 08:07:11;;;;;;;34.07;2.10;;;;;;;8.35;100.00;96232.41;5024444;28;20609;-63
2021/12/02 08:09:37;;;;;;;58.43;3.27;;;;;;;8.33;100.00;96226.56;5022703;28;20606;-63
2021/12/02 08:12:05;;;;;;;34.83;2.00;;;;;;;8.52;100.00;96227.31;5023446;28;20626;-63
2021/12/02 08:14:31;;;;;;;40.73;2.43;;;;;;;8.43;100.00;96228.28;5026121;28;20605;-63
2021/12/02 08:16:59;;;;;;;19.03;1.40;;;;;;;8.39;100.00;96233.38;5026135;28;20628;-64
2021/12/02 08:19:26;;;;;;;29.03;1.80;;;;;;;8.28;100.00;96231.97;5014496;28;20605;-64
2021/12/02 08:21:54;;;;;;;44.10;2.30;;;;;;;8.14;100.00;96226.53;5014584;28;20610;-64
2021/12/02 08:24:23;;;;;;;26.97;2.20;;;;;;;8.26;100.00;96228.78;5014756;28;20641;-63
2021/12/02 08:26:50;;;;;;;22.93;1.73;;;;;;;8.41;100.00;96233.09;5014438;28;20617;-63
2021/12/02 08:29:17;;;;;;;28.50;1.83;;;;;;;8.46;100.00;96222.38;5022609;28;20615;-64
2021/12/02 08:31:44;;;;;;;34.93;1.87;;;;;;;8.24;100.00;96224.81;5026389;28;20625;-63
2021/12/02 08:34:12;;;;;;;16.67;1.30;;;;;;;8.50;100.00;96221.53;5028070;28;20629;-63
2021/12/02 08:36:45;;;;;;;63.93;3.60;;;;;;;8.37;100.00;96219.59;5029675;28;20597;-63
2021/12/02 08:39:17;;;;;;;38.37;2.20;;;;;;;8.47;100.00;96222.09;5027620;28;20624;-63
2021/12/02 08:41:47;;;;;;;38.13;1.90;;;;;;;8.39;100.00;96214.75;5026308;28;20605;-63
2021/12/02 08:44:13;;;;;;;18.13;1.10;;;;;;;8.24;100.00;96211.50;5028195;28;20606;-63
2021/12/02 08:46:40;;;;;;;58.40;3.00;;;;;;;8.53;100.00;96210.28;5029535;28;20597;-63
2021/12/02 08:49:07;;;;;;;21.60;1.40;;;;;;;8.60;100.00;96216.00;5028277;28;20612;-64
2021/12/02 08:51:35;;;;;;;42.60;2.67;;;;;;;8.46;100.00;96220.50;5025843;28;20617;-63
2021/12/02 08:54:02;;;;;;;53.67;2.93;;;;;;;8.31;100.00;96214.63;5026000;28;20621;-63
2021/12/02 08:56:29;;;;;;;42.33;2.10;;;;;;;8.19;100.00;96207.06;5029129;28;20628;-63
2021/12/02 08:58:55;;;;;;;11.73;1.20;;;;;;;8.21;100.00;96220.06;5029297;28;20671;-63
2021/12/02 09:01:22;;;;;;;24.43;1.40;;;;;;;8.55;100.00;96229.41;5026098;28;20613;-63
2021/12/02 09:03:49;;;;;;;54.20;2.80;;;;;;;8.55;100.00;96241.91;5025835;28;20610;-63
2021/12/02 09:06:21;;;;;;;56.43;3.33;;;;;;;8.50;100.00;96229.50;5028142;28;20629;-63
2021/12/02 09:08:51;;;;;;;31.53;1.63;;;;;;;8.47;100.00;96231.94;5029153;28;20612;-63
2021/12/02 09:11:17;;;;;;;27.00;1.60;;;;;;;8.36;100.00;96244.59;5025714;28;20613;-63
2021/12/02 09:13:44;;;;;;;50.20;2.47;;;;;;;8.50;100.00;96239.34;5025676;28;20609;-63
2021/12/02 09:16:11;;;;;;;46.47;2.93;;;;;;;8.45;100.00;96242.84;5027221;28;20606;-63
2021/12/02 09:18:38;;;;;;;76.10;3.83;;;;;;;8.48;100.00;96234.28;5028962;28;20620;-63
2021/12/02 09:21:05;;;;;;;17.33;1.70;;;;;;;8.46;100.00;96233.81;5028116;28;20608;-63
2021/12/02 09:23:31;;;;;;;32.40;1.80;;;;;;;8.39;100.00;96235.25;5025569;28;20613;-63
2021/12/02 09:25:59;;;;;;;30.77;1.43;;;;;;;8.48;100.00;96239.63;5025569;28;20680;-64
2021/12/02 09:28:26;;;;;;;21.93;1.27;;;;;;;8.53;100.00;96244.09;5020973;28;20616;-63
2021/12/02 09:30:53;;;;;;;22.73;1.57;;;;;;;8.32;100.00;96234.84;5028774;28;20597;-63
2021/12/02 09:33:20;;;;;;;19.40;1.33;;;;;;;8.23;100.00;96229.34;5025901;28;20666;-63
2021/12/02 09:35:46;;;;;;;75.57;3.40;;;;;;;8.18;100.00;96231.28;5025238;28;20598;-63
2021/12/02 09:38:13;;;;;;;29.80;1.83;;;;;;;8.35;100.00;96221.75;5026999;28;20620;-63
2021/12/02 09:40:41;;;;;;;45.93;2.37;;;;;;;8.37;100.00;96219.59;5028302;28;20632;-63
2021/12/02 09:43:10;;;;;;;29.43;1.97;;;;;;;8.28;100.00;96229.31;5027329;28;20596;-64
2021/12/02 09:45:38;;;;;;;43.40;2.20;;;;;;;8.34;100.00;96233.47;5024232;28;20602;-63
2021/12/02 09:48:05;;;;;;;22.17;1.60;;;;;;;8.50;100.00;96234.81;5025740;28;20608;-63
2021/12/02 09:50:34;;;;;;;16.13;1.47;;;;;;;8.70;100.00;96232.91;5028494;28;20604;-63
2021/12/02 09:53:07;;;;;;;20.73;1.90;;;;;;;8.83;100.00;96237.47;5027963;28;20613;-63
2021/12/02 09:55:41;;;;;;;44.27;2.97;;;;;;;8.72;100.00;96236.06;5024781;28;20632;-63
2021/12/02 09:58:16;;;;;;;36.23;2.40;;;;;;;8.56;100.00;96225.69;5025969;28;20614;-63
2021/12/02 10:00:47;;;;;;;35.23;2.40;;;;;;;8.73;100.00;96219.03;5028262;28;21399;-63
2021/12/02 10:03:28;;;;;;;17.53;1.83;;;;;;;8.52;100.00;96216.69;5025960;28;20611;-63
2021/12/02 10:06:03;;;;;;;24.23;1.80;;;;;;;8.44;100.00;96213.91;5024610;28;20602;-63
2021/12/02 10:08:35;;;;;;;28.50;1.93;;;;;;;8.45;100.00;96221.56;5024923;28;20608;-63
2021/12/02 10:11:03;;;;;;;24.50;1.60;;;;;;;8.78;100.00;96213.63;5024610;28;20883;-64
2021/12/02 10:13:38;;;;;;;76.33;3.87;;;;;;;8.65;100.00;96205.31;5027684;28;20612;-63
2021/12/02 10:16:09;;;;;;;30.67;2.00;;;;;;;8.60;100.00;96202.72;5026827;28;20619;-63
2021/12/02 10:18:43;;;;;;;17.87;1.53;;;;;;;8.56;100.00;96217.69;5024479;28;20641;-63
2021/12/02 10:21:21;;;;;;;21.50;1.23;;;;;;;8.52;100.00;96208.72;5025833;28;20621;-64
2021/12/02 10:23:48;;;;;;;18.87;1.30;;;;;;;8.71;100.00;96207.88;5027738;28;20605;-64
2021/12/02 10:26:18;;;;;;;34.87;2.43;;;;;;;8.76;100.00;96195.25;5025598;28;20621;-63
2021/12/02 10:28:48;;;;;;;48.93;2.97;;;;;;;8.47;100.00;96195.50;5028315;28;20617;-63
2021/12/02 10:31:21;;;;;;;72.00;3.43;;;;;;;8.42;100.00;96189.44;5025465;28;20600;-63
2021/12/02 10:33:52;;;;;;;65.67;4.73;;;;;;;8.81;100.00;96181.09;5024072;28;20614;-63
2021/12/02 10:36:31;;;;;;;18.83;1.23;;;;;;;8.65;100.00;96177.91;5026677;28;20596;-63
2021/12/02 10:39:00;;;;;;;19.90;1.53;;;;;;;8.73;100.00;96179.88;5027630;28;20604;-64
2021/12/02 10:41:29;;;;;;;20.93;1.57;;;;;;;8.77;100.00;96185.41;5024088;28;20613;-64
2021/12/02 10:44:19;;;;;;;17.73;1.30;;;;;;;8.41;100.00;96186.03;5024004;28;20602;-64
2021/12/02 10:47:01;;;;;;;37.40;2.30;;;;;;;8.47;100.00;96198.16;5023745;28;20605;-64
2021/12/02 10:49:30;;;;;;;51.77;2.87;;;;;;;8.42;100.00;96174.28;5023929;28;20629;-64
2021/12/02 10:52:01;;;;;;;18.43;1.63;;;;;;;8.47;100.00;96179.53;5023509;28;20637;-64
2021/12/02 10:54:29;;;;;;;46.90;2.67;;;;;;;8.46;100.00;96171.84;5023494;28;20606;-63
2021/12/02 10:56:58;;;;;;;29.60;2.23;;;;;;;8.59;100.00;96163.91;5023692;28;20601;-63
2021/12/02 10:59:36;;;;;;;39.60;4.00;;;;;;;8.50;100.00;96163.00;5023626;28;20617;-63
2021/12/02 11:02:06;;;;;;;37.87;2.20;;;;;;;8.66;100.00;96164.28;5023907;28;20613;-63
2021/12/02 11:04:39;;;;;;;60.77;4.67;;;;;;;9.16;100.00;96156.44;5026946;28;20647;-64
2021/12/02 11:07:10;;;;;;;64.07;3.57;;;;;;;9.05;100.00;96158.53;5025961;28;20632;-64
2021/12/02 11:09:38;;;;;;;16.10;1.43;;;;;;;9.38;100.00;96145.88;5023367;28;20614;-64
2021/12/02 11:12:17;;;;;;;17.97;1.40;;;;;;;9.84;100.00;96150.25;5024184;28;20609;-64
2021/12/02 11:14:57;;;;;;;45.87;2.83;;;;;;;9.35;100.00;96146.47;5026888;28;20604;-64
2021/12/02 11:17:29;;;;;;;41.73;2.17;;;;;;;9.09;100.00;96140.09;5022337;28;20613;-64
2021/12/02 11:19:56;;;;;;;29.73;1.90;;;;;;;9.29;100.00;96145.00;5023107;28;20609;-64
2021/12/02 11:22:24;;;;;;;22.03;1.63;;;;;;;9.15;100.00;96138.91;5026530;28;20609;-64
2021/12/02 11:24:51;;;;;;;57.00;3.23;;;;;;;9.20;100.00;96136.13;5026446;28;20612;-64
2021/12/02 11:27:20;;;;;;;40.60;2.70;;;;;;;9.05;100.00;96137.25;5024007;28;20601;-64
2021/12/02 11:29:57;;;;;;;67.40;3.50;;;;;;;8.82;100.00;96124.88;5022999;28;20641;-63
2021/12/02 11:32:31;;;;;;;36.07;2.10;;;;;;;8.68;100.00;96134.75;5026459;28;20603;-64
2021/12/02 11:35:20;;;;;;;45.60;2.50;;;;;;;8.90;100.00;96140.19;5026660;28;20672;-63
2021/12/02 11:37:50;;;;;;;42.30;2.47;;;;;;;8.64;100.00;96144.38;5023082;28;20613;-63